Time;durP1;ratioP1;P1;durP2;ratioP2;P2;SDS_P1;SDS_P2;PMS_P1;PMS_P2;Temp;Humidity;BMP_temperature;BMP_pressure;BME280_temperature;BME280_humidity;BME280_pressure;Samples;Min_cycle;Max_cycle;Signal;HPM_P1;HPM_P2
2022/01/29 00:00:44;;;;;;;;;29.00;23.00;;;;;7.96;73.39;103307.44;5020187;28;45363;-67
2022/01/29 00:03:10;;;;;;;;;17.33;17.33;;;;;8.03;73.06;103308.94;5038214;28;45426;-66
2022/01/29 00:05:35;;;;;;;;;20.67;15.67;;;;;8.07;73.44;103306.00;5020615;28;45642;-67
2022/01/29 00:08:02;;;;;;;;;18.00;15.33;;;;;8.15;73.50;103298.41;5014462;28;46705;-67
2022/01/29 00:10:28;;;;;;;;;22.33;18.67;;;;;8.15;72.82;103294.81;5021145;28;45156;-66
2022/01/29 00:12:53;;;;;;;;;17.33;17.33;;;;;8.19;72.87;103297.31;5015458;28;45153;-66
2022/01/29 00:15:20;;;;;;;;;22.00;20.00;;;;;8.20;73.41;103292.78;5022701;28;45656;-66
2022/01/29 00:17:45;;;;;;;;;17.67;14.00;;;;;8.28;72.75;103298.72;5020489;28;45454;-67
2022/01/29 00:20:11;;;;;;;;;17.67;15.67;;;;;8.29;73.11;103286.94;5037905;28;45259;-66
2022/01/29 00:22:36;;;;;;;;;20.00;17.33;;;;;8.29;72.73;103275.22;5035332;28;45693;-66
2022/01/29 00:25:02;;;;;;;;;18.33;16.00;;;;;8.21;72.58;103281.00;5022517;28;45603;-66
2022/01/29 00:27:32;;;;;;;;;18.33;15.33;;;;;8.30;72.37;103266.16;5010486;28;47056;-66
2022/01/29 00:29:58;;;;;;;;;21.00;17.67;;;;;8.27;72.70;103269.00;5023367;28;45238;-67
2022/01/29 00:32:26;;;;;;;;;18.00;15.33;;;;;8.31;72.72;103263.41;5013140;28;45344;-66
2022/01/29 00:34:53;;;;;;;;;22.67;21.00;;;;;8.33;72.40;103266.91;5023396;28;45361;-66
2022/01/29 00:37:19;;;;;;;;;16.33;14.00;;;;;8.28;72.82;103262.63;5017047;28;46169;-66
2022/01/29 00:39:44;;;;;;;;;25.00;20.00;;;;;8.24;72.96;103248.38;5022339;28;45323;-67
2022/01/29 00:42:09;;;;;;;;;21.33;19.00;;;;;8.20;73.19;103249.44;5016488;28;45362;-66
2022/01/29 00:44:35;;;;;;;;;18.00;15.67;;;;;8.26;73.28;103253.69;5038753;28;45341;-66
2022/01/29 00:47:00;;;;;;;;;8.00;8.00;;;;;8.28;72.69;103249.97;5016545;28;45347;-66
2022/01/29 00:49:25;;;;;;;;;18.00;15.67;;;;;8.35;72.90;103251.47;5022914;28;45272;-66
2022/01/29 00:51:51;;;;;;;;;22.33;19.00;;;;;8.26;72.68;103249.16;5016465;28;45359;-66
2022/01/29 00:54:16;;;;;;;;;16.67;16.00;;;;;8.31;73.34;103244.44;5021968;28;45379;-66
2022/01/29 00:56:41;;;;;;;;;17.33;14.67;;;;;8.31;73.22;103230.91;5031152;28;47181;-67
2022/01/29 00:59:07;;;;;;;;;16.33;14.67;;;;;8.33;72.53;103238.97;5021423;28;45309;-66
2022/01/29 01:01:32;;;;;;;;;19.33;12.67;;;;;8.11;73.56;103236.31;5015027;28;45324;-67
2022/01/29 01:03:58;;;;;;;;;15.67;15.67;;;;;8.17;73.46;103225.25;5023346;28;45425;-66
2022/01/29 01:06:23;;;;;;;;;18.33;18.00;;;;;8.20;73.62;103214.25;5016278;28;45574;-66
2022/01/29 01:08:49;;;;;;;;;20.33;18.00;;;;;8.13;74.90;103221.78;5018787;28;45387;-66
2022/01/29 01:11:14;;;;;;;;;19.67;18.00;;;;;8.14;75.13;103222.66;5016322;28;45152;-66
2022/01/29 01:13:39;;;;;;;;;18.67;15.00;;;;;8.11;75.28;103218.25;5035792;28;45662;-66
2022/01/29 01:16:05;;;;;;;;;16.00;14.33;;;;;8.07;75.22;103218.47;5018992;28;46717;-66
2022/01/29 01:18:30;;;;;;;;;20.67;18.67;;;;;7.94;75.85;103236.25;5020968;28;45390;-66
2022/01/29 01:20:56;;;;;;;;;18.33;15.33;;;;;8.10;75.64;103221.06;5020139;28;45233;-67
2022/01/29 01:23:21;;;;;;;;;23.00;19.00;;;;;8.21;75.88;103226.84;5022397;28;45565;-66
2022/01/29 01:25:47;;;;;;;;;21.00;14.33;;;;;8.22;75.50;103223.19;5019998;28;45707;-66
2022/01/29 01:28:13;;;;;;;;;27.67;17.00;;;;;8.24;75.67;103218.56;5014026;28;45399;-67
2022/01/29 01:30:39;;;;;;;;;18.33;14.67;;;;;8.24;76.16;103215.88;5020302;28;45671;-66
2022/01/29 01:33:05;;;;;;;;;9.67;7.33;;;;;8.21;76.50;103219.59;5022674;28;45414;-66
2022/01/29 01:35:36;;;;;;;;;20.67;18.00;;;;;8.19;76.69;103226.00;5020907;28;46377;-66
2022/01/29 01:38:42;;;;;;;;;18.33;18.33;;;;;8.22;77.15;103228.59;5017653;28;45406;-66
2022/01/29 01:40:59;;;;;;;;;23.33;19.00;;;;;8.14;77.72;103231.66;5018999;28;45216;-66
2022/01/29 01:43:25;;;;;;;;;21.67;18.00;;;;;8.11;77.81;103214.66;5015878;28;45364;-66
2022/01/29 01:45:50;;;;;;;;;18.00;12.33;;;;;8.17;78.11;103219.81;5018616;28;45257;-66
2022/01/29 01:48:16;;;;;;;;;17.67;17.67;;;;;8.17;78.17;103211.69;5017660;28;45403;-66
2022/01/29 01:50:41;;;;;;;;;20.33;16.33;;;;;8.06;79.13;103211.31;5009651;28;45350;-66
2022/01/29 01:53:07;;;;;;;;;19.00;16.33;;;;;8.07;79.40;103213.06;5023810;28;45381;-66
2022/01/29 01:55:33;;;;;;;;;13.33;12.33;;;;;7.99;80.16;103205.31;5023301;28;46289;-66
2022/01/29 01:57:58;;;;;;;;;26.67;22.00;;;;;7.85;80.15;103217.72;5019599;28;45212;-66
2022/01/29 02:00:26;;;;;;;;;15.00;11.67;;;;;7.81;80.96;103212.47;5023780;28;45238;-67
2022/01/29 02:02:51;;;;;;;;;18.33;15.33;;;;;7.86;80.62;103217.66;5021563;28;45224;-67
2022/01/29 02:05:18;;;;;;;;;23.67;18.33;;;;;7.80;81.10;103209.81;5024486;28;45419;-66
2022/01/29 02:07:45;;;;;;;;;19.33;17.00;;;;;7.65;81.19;103218.66;5018184;28;45456;-66
2022/01/29 02:10:11;;;;;;;;;21.67;16.67;;;;;7.64;81.45;103204.25;5024729;28;45278;-66
2022/01/29 02:12:50;;;;;;;;;22.67;19.67;;;;;7.72;81.91;103207.47;5018676;28;45241;-66
2022/01/29 02:15:18;;;;;;;;;18.00;18.00;;;;;7.72;81.64;103196.66;5012805;28;46560;-66
2022/01/29 02:17:44;;;;;;;;;22.33;14.67;;;;;7.77;81.26;103194.59;5022284;28;45366;-66
2022/01/29 02:20:10;;;;;;;;;22.00;17.33;;;;;7.81;81.45;103185.41;5025114;28;45346;-67
2022/01/29 02:22:38;;;;;;;;;22.33;19.00;;;;;7.80;81.28;103196.31;5022728;28;45434;-66
2022/01/29 02:25:04;;;;;;;;;23.67;20.33;;;;;7.81;81.43;103185.41;5025098;28;45394;-66
2022/01/29 02:27:29;;;;;;;;;22.33;20.67;;;;;7.87;81.47;103178.81;5014076;28;45414;-66
2022/01/29 02:29:55;;;;;;;;;20.00;17.67;;;;;7.87;81.04;103173.41;5025419;28;45454;-66
2022/01/29 02:32:20;;;;;;;;;21.67;17.33;;;;;7.94;80.44;103164.03;5031065;28;45224;-66
2022/01/29 02:34:46;;;;;;;;;25.67;20.33;;;;;7.97;80.47;103157.59;5025197;28;45438;-66
2022/01/29 02:37:11;;;;;;;;;18.33;17.67;;;;;7.90;80.73;103158.84;5017293;28;45362;-66
2022/01/29 02:39:36;;;;;;;;;20.00;19.00;;;;;7.94;80.83;103149.63;5025172;28;45388;-67
2022/01/29 02:42:03;;;;;;;;;22.00;18.33;;;;;7.74;81.00;103134.34;5016326;28;45977;-66
2022/01/29 02:44:30;;;;;;;;;20.67;16.67;;;;;7.86;81.34;103139.16;5023388;28;47143;-66
2022/01/29 02:47:03;;;;;;;;;12.33;12.33;;;;;7.78;80.92;103142.25;5018146;28;45825;-66
2022/01/29 02:49:28;;;;;;;;;18.00;17.00;;;;;7.86;81.40;103135.59;5024942;28;45494;-67
2022/01/29 02:51:56;;;;;;;;;11.00;11.00;;;;;7.86;81.30;103130.16;5018441;28;45471;-66
2022/01/29 02:54:23;;;;;;;;;23.67;18.67;;;;;7.83;81.12;103132.06;5023301;28;48374;-66
2022/01/29 02:56:48;;;;;;;;;21.33;19.67;;;;;7.80;80.75;103120.53;5016920;28;45406;-66
2022/01/29 02:59:14;;;;;;;;;20.67;16.00;;;;;7.87;81.30;103116.56;5024738;28;45335;-66
2022/01/29 03:01:40;;;;;;;;;20.33;15.00;;;;;8.00;80.74;103120.44;5017906;28;45545;-66
2022/01/29 03:04:06;;;;;;;;;16.67;16.33;;;;;8.03;80.95;103105.88;5039796;28;47223;-66
2022/01/29 03:06:33;;;;;;;;;18.00;14.00;;;;;8.03;80.37;103112.19;5018449;28;45328;-66
2022/01/29 03:08:58;;;;;;;;;19.00;14.00;;;;;8.02;80.87;103101.41;5020675;28;45560;-66
2022/01/29 03:11:23;;;;;;;;;18.00;13.00;;;;;8.01;80.70;103105.06;5035235;28;45437;-66
2022/01/29 03:13:50;;;;;;;;;17.67;15.00;;;;;8.09;80.78;103103.75;5021452;28;46271;-67
2022/01/29 03:16:16;;;;;;;;;13.33;12.67;;;;;8.04;81.11;103094.06;5020894;28;45379;-66
2022/01/29 03:18:42;;;;;;;;;18.33;14.00;;;;;8.07;80.43;103091.22;5022915;28;45343;-66
2022/01/29 03:21:07;;;;;;;;;19.33;15.33;;;;;8.03;80.44;103097.75;5021107;28;45475;-66
2022/01/29 03:23:33;;;;;;;;;19.67;15.00;;;;;8.09;80.71;103105.59;5015164;28;45346;-66
2022/01/29 03:25:58;;;;;;;;;15.33;14.00;;;;;8.15;80.29;103107.97;5020358;28;46085;-66
2022/01/29 03:28:23;;;;;;;;;13.00;13.00;;;;;8.13;80.45;103096.34;5016299;28;45176;-66
2022/01/29 03:30:49;;;;;;;;;9.67;8.00;;;;;8.16;80.19;103098.91;5022524;28;45196;-66
2022/01/29 03:33:14;;;;;;;;;21.33;14.00;;;;;8.20;80.38;103101.38;5016873;28;46621;-66
2022/01/29 03:35:40;;;;;;;;;15.33;14.67;;;;;8.24;79.53;103104.81;5023018;28;45335;-66
2022/01/29 03:38:05;;;;;;;;;17.67;13.33;;;;;8.28;80.12;103109.13;5019502;28;45867;-66
2022/01/29 03:40:32;;;;;;;;;19.67;16.33;;;;;8.30;79.92;103101.81;5020770;28;45323;-66
2022/01/29 03:43:04;;;;;;;;;13.00;12.67;;;;;8.26;79.92;103099.31;5019380;28;45430;-66
2022/01/29 03:45:30;;;;;;;;;11.00;10.67;;;;;8.26;80.42;103110.16;5021720;28;45280;-66
2022/01/29 03:47:56;;;;;;;;;11.00;9.33;;;;;8.26;80.48;103096.59;5019305;28;45347;-67
2022/01/29 03:50:21;;;;;;;;;14.67;9.67;;;;;8.31;79.89;103091.91;5021486;28;45547;-66
2022/01/29 03:52:47;;;;;;;;;15.00;10.33;;;;;8.29;80.10;103097.34;5018560;28;46233;-66
2022/01/29 03:55:12;;;;;;;;;19.00;14.00;;;;;8.23;79.98;103094.06;5022910;28;45395;-67
2022/01/29 03:57:37;;;;;;;;;18.33;13.00;;;;;8.13;80.41;103094.50;5019498;28;45478;-66
2022/01/29 04:00:05;;;;;;;;;20.67;15.33;;;;;8.15;80.98;103099.88;5024105;28;45642;-66
2022/01/29 04:02:31;;;;;;;;;17.33;16.00;;;;;8.19;80.81;103098.75;5016829;28;45560;-66
2022/01/29 04:04:56;;;;;;;;;15.33;14.00;;;;;8.17;81.20;103096.13;5023415;28;45397;-66
2022/01/29 04:07:22;;;;;;;;;13.33;12.33;;;;;8.11;81.00;103092.81;5017449;28;45287;-66
2022/01/29 04:09:49;;;;;;;;;14.00;13.00;;;;;8.22;81.67;103104.03;5020843;28;45572;-66
2022/01/29 04:12:15;;;;;;;;;19.00;15.00;;;;;8.23;81.14;103088.66;5018147;28;45616;-66
2022/01/29 04:14:41;;;;;;;;;17.00;13.00;;;;;8.24;81.35;103091.28;5019762;28;45241;-67
2022/01/29 04:17:07;;;;;;;;;17.67;17.00;;;;;8.20;81.35;103090.56;5018480;28;45419;-66
2022/01/29 04:19:34;;;;;;;;;22.33;19.67;;;;;7.92;82.42;103086.56;5022370;28;45552;-66
2022/01/29 04:22:00;;;;;;;;;23.33;17.67;;;;;7.90;82.92;103083.03;5019254;28;47283;-66
2022/01/29 04:24:25;;;;;;;;;19.67;14.33;;;;;8.05;82.72;103098.53;5021229;28;45371;-66
2022/01/29 04:26:51;;;;;;;;;17.67;12.00;;;;;8.12;81.82;103081.03;5016141;28;45376;-66
2022/01/29 04:29:16;;;;;;;;;14.00;13.00;;;;;8.03;82.10;103095.06;5020112;28;45465;-66
2022/01/29 04:31:59;;;;;;;;;15.33;15.33;;;;;7.97;82.75;103108.88;5017594;28;46067;-66
2022/01/29 04:34:25;;;;;;;;;19.00;13.67;;;;;8.06;82.24;103108.44;5021474;28;45412;-66
2022/01/29 04:36:51;;;;;;;;;18.00;12.33;;;;;8.16;82.13;103098.91;5017178;28;45529;-67
2022/01/29 04:39:16;;;;;;;;;19.33;14.33;;;;;8.13;82.28;103088.22;5023344;28;45459;-66
2022/01/29 04:41:42;;;;;;;;;18.67;15.00;;;;;8.19;81.97;103085.19;5016359;28;46588;-68
2022/01/29 04:44:07;;;;;;;;;16.33;13.33;;;;;8.17;82.00;103079.88;5038281;28;45449;-67
2022/01/29 04:46:33;;;;;;;;;18.00;14.67;;;;;8.15;82.37;103080.91;5016600;28;45431;-66
2022/01/29 04:48:58;;;;;;;;;16.00;13.00;;;;;8.17;82.09;103081.72;5023445;28;45245;-66
2022/01/29 04:51:23;;;;;;;;;17.00;13.67;;;;;8.10;82.96;103082.97;5016458;28;45476;-66
2022/01/29 04:53:49;;;;;;;;;13.00;12.67;;;;;8.10;82.82;103080.25;5048306;28;45393;-66
2022/01/29 04:56:15;;;;;;;;;13.00;12.00;;;;;8.16;82.92;103080.84;5006933;28;45331;-66
2022/01/29 04:58:41;;;;;;;;;12.67;12.67;;;;;8.13;83.22;103075.56;5023088;28;45422;-66
2022/01/29 05:01:06;;;;;;;;;12.33;12.33;;;;;8.23;83.12;103086.81;5017658;28;45300;-66
2022/01/29 05:03:32;;;;;;;;;12.33;12.33;;;;;8.14;83.71;103082.72;5021096;28;45375;-65
2022/01/29 05:05:58;;;;;;;;;18.00;13.67;;;;;8.15;83.72;103075.50;5033894;28;45460;-65
2022/01/29 05:08:24;;;;;;;;;13.67;11.33;;;;;8.17;83.97;103089.84;5016950;28;45406;-65
2022/01/29 05:10:49;;;;;;;;;15.67;13.67;;;;;8.17;83.40;103085.31;5034842;28;48187;-65
2022/01/29 05:13:19;;;;;;;;;12.33;11.33;;;;;8.19;84.03;103096.03;5018884;28;45260;-66
2022/01/29 05:16:05;;;;;;;;;8.67;8.33;;;;;8.20;83.91;103090.56;5036073;28;45480;-65
2022/01/29 05:26:51;;;;;;;;;12.67;12.00;;;;;8.51;83.24;103081.78;5020060;28;45398;-64
2022/01/29 05:29:17;;;;;;;;;15.33;9.00;;;;;8.46;82.44;103086.59;5022150;28;45472;-65
2022/01/29 05:31:42;;;;;;;;;13.33;9.00;;;;;8.46;83.14;103086.59;5019708;28;46057;-65
2022/01/29 05:34:08;;;;;;;;;13.00;9.00;;;;;8.41;83.10;103082.31;5040978;28;45200;-65
2022/01/29 05:36:33;;;;;;;;;10.67;9.33;;;;;8.46;83.40;103078.47;5020313;28;45433;-65
2022/01/29 05:38:59;;;;;;;;;17.00;16.33;;;;;8.38;82.84;103077.09;5023033;28;45265;-65
2022/01/29 05:41:24;;;;;;;;;10.33;10.33;;;;;8.41;83.07;103072.38;5018960;28;46374;-65
2022/01/29 05:43:50;;;;;;;;;16.00;14.67;;;;;8.43;82.58;103070.47;5025731;28;45266;-65
2022/01/29 05:46:16;;;;;;;;;12.33;12.33;;;;;8.45;82.69;103068.56;5034797;28;45242;-65
2022/01/29 05:48:42;;;;;;;;;10.00;10.00;;;;;8.44;82.67;103074.94;5024725;28;45508;-65
2022/01/29 05:51:10;;;;;;;;;13.67;10.00;;;;;8.54;83.14;103069.94;5020468;28;46231;-65
2022/01/29 05:53:36;;;;;;;;;18.67;11.67;;;;;8.64;82.31;103067.59;5024400;28;45378;-65
2022/01/29 05:56:02;;;;;;;;;16.33;12.00;;;;;8.67;82.33;103072.88;5019636;28;45363;-65
2022/01/29 05:58:27;;;;;;;;;16.00;14.00;;;;;8.49;82.91;103056.59;5023577;28;45160;-65
2022/01/29 06:00:53;;;;;;;;;11.33;10.00;;;;;8.59;82.64;103059.72;5022310;28;45879;-65
2022/01/29 06:03:18;;;;;;;;;19.67;15.33;;;;;8.50;83.07;103066.50;5012936;28;45297;-65
2022/01/29 06:05:43;;;;;;;;;15.00;13.33;;;;;8.52;83.15;103059.16;5042989;28;45444;-65
2022/01/29 06:08:09;;;;;;;;;12.00;12.00;;;;;8.55;82.73;103049.97;5019045;28;45221;-65
2022/01/29 06:10:34;;;;;;;;;11.33;11.33;;;;;8.62;82.54;103064.13;5021417;28;47341;-65
2022/01/29 06:13:00;;;;;;;;;11.00;11.00;;;;;8.65;82.75;103063.94;5020915;28;45236;-67
2022/01/29 06:15:26;;;;;;;;;12.67;10.00;;;;;8.66;83.14;103065.69;5024100;28;45391;-65
2022/01/29 06:17:51;;;;;;;;;18.33;12.00;;;;;8.65;82.41;103056.69;5024223;28;45639;-65
2022/01/29 06:20:17;;;;;;;;;14.67;13.67;;;;;8.71;82.26;103060.91;5024382;28;45212;-65
2022/01/29 06:22:42;;;;;;;;;8.00;8.00;;;;;8.63;82.21;103068.56;5013440;28;45434;-65
2022/01/29 06:25:08;;;;;;;;;15.33;14.00;;;;;8.62;82.84;103074.97;5025028;28;45352;-65
2022/01/29 06:27:33;;;;;;;;;14.00;12.67;;;;;8.61;82.94;103059.66;5031127;28;45429;-66
2022/01/29 06:29:59;;;;;;;;;9.00;8.00;;;;;8.71;82.14;103059.09;5024936;28;45526;-66
2022/01/29 06:32:24;;;;;;;;;7.00;6.00;;;;;8.63;82.14;103065.84;5017749;28;45640;-66
2022/01/29 06:34:50;;;;;;;;;18.33;10.00;;;;;8.61;82.72;103067.78;5020382;28;45546;-66
2022/01/29 06:37:15;;;;;;;;;10.33;8.00;;;;;8.69;82.21;103065.56;5014909;28;45288;-66
2022/01/29 06:39:40;;;;;;;;;12.33;11.33;;;;;8.68;82.49;103069.22;5024659;28;46169;-66
2022/01/29 06:42:06;;;;;;;;;8.33;8.33;;;;;8.76;82.45;103061.56;5017960;28;45299;-66
2022/01/29 06:44:31;;;;;;;;;13.67;12.67;;;;;8.81;82.37;103060.38;5024778;28;45342;-66
2022/01/29 06:46:57;;;;;;;;;13.00;13.00;;;;;8.85;81.91;103056.53;5018559;28;45622;-66
2022/01/29 06:49:22;;;;;;;;;16.33;14.33;;;;;8.82;81.48;103055.81;5024537;28;46705;-66
2022/01/29 06:51:47;;;;;;;;;14.33;9.00;;;;;8.84;82.06;103048.50;5018071;28;45483;-67
2022/01/29 06:54:13;;;;;;;;;12.00;12.00;;;;;8.89;82.36;103046.41;5024485;28;45318;-67
2022/01/29 06:56:38;;;;;;;;;13.00;12.00;;;;;8.88;82.11;103044.66;5022021;28;45232;-66
2022/01/29 06:59:03;;;;;;;;;11.67;10.00;;;;;8.83;82.03;103046.75;5024364;28;45359;-66
2022/01/29 07:01:29;;;;;;;;;10.67;10.67;;;;;8.74;82.14;103045.38;5016578;28;45885;-66
2022/01/29 07:03:54;;;;;;;;;10.33;8.00;;;;;8.77;82.29;103057.88;5024621;28;45180;-66
2022/01/29 07:06:19;;;;;;;;;11.00;8.67;;;;;8.81;81.96;103059.47;5019179;28;45280;-66
2022/01/29 07:08:45;;;;;;;;;12.00;8.00;;;;;8.85;82.58;103050.22;5020798;28;45244;-66
2022/01/29 07:11:10;;;;;;;;;9.00;8.33;;;;;8.79;82.72;103056.84;5035230;28;45416;-66
2022/01/29 07:13:36;;;;;;;;;8.33;8.00;;;;;8.79;82.85;103054.13;5022090;28;45494;-67
2022/01/29 07:16:01;;;;;;;;;8.00;8.00;;;;;8.83;82.35;103063.00;5022379;28;45418;-66
2022/01/29 07:18:26;;;;;;;;;14.00;9.33;;;;;8.82;82.67;103053.09;5024073;28;45293;-66
2022/01/29 07:20:52;;;;;;;;;14.67;10.33;;;;;8.72;82.86;103043.69;5036607;28;45382;-66
2022/01/29 07:23:17;;;;;;;;;8.00;7.67;;;;;8.87;82.50;103035.63;5023621;28;45478;-66
2022/01/29 07:25:43;;;;;;;;;12.00;7.67;;;;;8.88;82.16;103047.34;5021085;28;45313;-66
2022/01/29 07:28:08;;;;;;;;;9.67;8.67;;;;;8.92;81.50;103040.81;5038557;28;48354;-66
2022/01/29 07:30:33;;;;;;;;;11.33;9.67;;;;;8.83;82.39;103042.19;5020852;28;45394;-66
2022/01/29 07:32:59;;;;;;;;;5.33;5.33;;;;;8.86;82.39;103043.84;5022484;28;45450;-66
2022/01/29 07:35:24;;;;;;;;;8.33;7.00;;;;;8.93;82.14;103047.97;5020476;28;45713;-66
2022/01/29 07:37:49;;;;;;;;;8.67;7.00;;;;;8.99;81.73;103039.50;5022032;28;45464;-66
2022/01/29 07:40:15;;;;;;;;;5.00;4.33;;;;;8.96;82.12;103042.41;5022221;28;46828;-67
2022/01/29 07:42:40;;;;;;;;;7.00;7.00;;;;;9.01;81.73;103056.59;5021195;28;45556;-67
2022/01/29 07:45:06;;;;;;;;;7.00;5.67;;;;;9.12;81.93;103045.19;5021184;28;45472;-67
2022/01/29 07:47:31;;;;;;;;;3.33;3.00;;;;;9.18;81.52;103044.84;5020373;28;46041;-67
2022/01/29 07:49:56;;;;;;;;;11.00;7.00;;;;;9.13;81.43;103049.66;5021997;28;45414;-67
2022/01/29 07:52:22;;;;;;;;;7.67;5.00;;;;;9.10;81.78;103038.94;5036327;28;45981;-67
2022/01/29 07:54:47;;;;;;;;;7.00;5.50;;;;;9.04;82.34;103051.00;5022407;28;45619;-66
2022/01/29 07:57:12;;;;;;;;;6.00;6.00;;;;;9.13;81.71;103045.06;5020406;28;45403;-66
2022/01/29 07:59:38;;;;;;;;;8.00;6.00;;;;;9.02;82.70;103046.63;5021491;28;45339;-67
2022/01/29 08:02:03;;;;;;;;;23.67;20.00;;;;;9.12;82.90;103054.19;5020985;28;45695;-66
2022/01/29 08:04:28;;;;;;;;;14.67;14.67;;;;;9.19;82.52;103050.19;5019401;28;45742;-66
2022/01/29 08:06:54;;;;;;;;;7.00;4.33;;;;;9.24;82.31;103037.25;5021013;28;45434;-66
2022/01/29 08:09:19;;;;;;;;;5.33;5.33;;;;;9.10;81.99;103039.81;5020730;28;45562;-67
2022/01/29 08:11:45;;;;;;;;;7.33;4.33;;;;;9.24;82.30;103030.94;5019713;28;45429;-66
2022/01/29 08:14:10;;;;;;;;;4.33;3.67;;;;;9.33;81.70;103030.44;5021506;28;45697;-66
2022/01/29 08:16:36;;;;;;;;;6.33;5.00;;;;;9.36;81.41;103039.25;5019885;28;46455;-66
2022/01/29 08:19:01;;;;;;;;;4.00;4.00;;;;;9.27;81.72;103022.63;5023301;28;45264;-67
2022/01/29 08:21:26;;;;;;;;;4.33;4.33;;;;;9.15;81.96;103035.03;5020939;28;45493;-67
2022/01/29 08:23:52;;;;;;;;;3.00;3.00;;;;;9.35;82.09;103034.78;5022068;28;45328;-66
2022/01/29 08:26:17;;;;;;;;;5.67;4.00;;;;;9.30;81.37;103036.91;5020630;28;46211;-66
2022/01/29 08:28:43;;;;;;;;;3.00;3.00;;;;;9.40;81.77;103036.41;5014958;28;45280;-67
2022/01/29 08:31:08;;;;;;;;;3.00;1.67;;;;;9.22;81.63;103033.72;5017501;28;45786;-65
2022/01/29 08:33:34;;;;;;;;;6.33;6.33;;;;;9.20;82.33;103040.22;5018467;28;45651;-66
2022/01/29 08:36:00;;;;;;;;;7.33;4.67;;;;;9.30;82.22;103039.59;5017758;28;45372;-65
2022/01/29 08:38:26;;;;;;;;;4.67;4.67;;;;;9.42;82.46;103045.34;5015714;28;45564;-66
2022/01/29 08:40:53;;;;;;;;;3.67;3.67;;;;;9.45;82.01;103045.16;5019290;28;48064;-66
2022/01/29 08:43:18;;;;;;;;;7.00;5.00;;;;;9.50;81.89;103048.47;5018681;28;45559;-66
2022/01/29 08:45:44;;;;;;;;;7.00;7.00;;;;;9.58;81.80;103040.78;5017965;28;47153;-66
2022/01/29 08:48:09;;;;;;;;;5.67;5.67;;;;;9.56;81.17;103042.72;5018266;28;45282;-66
2022/01/29 08:50:35;;;;;;;;;3.33;3.33;;;;;9.46;81.75;103036.03;5020964;28;46551;-67
2022/01/29 08:53:00;;;;;;;;;3.00;3.00;;;;;9.48;81.36;103045.00;5017325;28;45398;-66
2022/01/29 08:55:26;;;;;;;;;7.33;7.33;;;;;9.53;81.42;103042.88;5019900;28;48300;-66
2022/01/29 08:57:51;;;;;;;;;4.00;4.00;;;;;9.53;82.41;103037.47;5015821;28;45721;-67
2022/01/29 09:00:17;;;;;;;;;7.67;4.00;;;;;9.54;81.79;103041.94;5024625;28;45363;-66
2022/01/29 09:02:43;;;;;;;;;6.67;4.67;;;;;9.58;81.80;103033.50;5018737;28;45461;-67
2022/01/29 09:05:10;;;;;;;;;6.67;3.67;;;;;9.56;81.89;103029.16;5020216;28;46968;-67
2022/01/29 09:07:35;;;;;;;;;4.67;4.67;;;;;9.69;81.44;103028.38;5019014;28;45503;-68
2022/01/29 09:10:01;;;;;;;;;3.00;3.00;;;;;9.68;81.33;103031.16;5024859;28;45520;-67
2022/01/29 09:12:26;;;;;;;;;4.33;4.33;;;;;9.54;81.00;103022.94;5022614;28;45585;-67
2022/01/29 09:14:52;;;;;;;;;7.67;3.33;;;;;9.50;82.19;103032.19;5024092;28;45635;-66
2022/01/29 09:17:17;;;;;;;;;4.33;3.33;;;;;9.56;82.28;103037.28;5022105;28;45399;-66
2022/01/29 09:19:42;;;;;;;;;4.67;4.67;;;;;9.62;81.49;103036.94;5026156;28;45337;-66
2022/01/29 09:22:08;;;;;;;;;5.67;4.00;;;;;9.68;81.68;103036.59;5017783;28;45252;-66
2022/01/29 09:24:33;;;;;;;;;5.00;3.33;;;;;9.71;81.55;103031.00;5024216;28;45395;-66
2022/01/29 09:27:00;;;;;;;;;6.00;5.00;;;;;9.68;81.01;103026.63;5018166;28;45415;-65
2022/01/29 09:29:25;;;;;;;;;4.67;4.00;;;;;9.63;81.50;103027.84;5024295;28;45356;-66
2022/01/29 09:31:50;;;;;;;;;4.33;2.67;;;;;9.76;81.31;103023.47;5019017;28;45409;-66
2022/01/29 09:34:16;;;;;;;;;0.33;0.33;;;;;9.79;81.10;103020.56;5025656;28;45682;-66
2022/01/29 09:36:41;;;;;;;;;8.00;8.00;;;;;9.97;80.99;103019.50;5019290;28;45202;-66
2022/01/29 09:39:06;;;;;;;;;5.00;4.00;;;;;9.92;80.34;103013.47;5025762;28;45343;-66
2022/01/29 09:41:32;;;;;;;;;3.67;3.67;;;;;9.99;80.40;103020.31;5019587;28;45406;-66
2022/01/29 09:43:58;;;;;;;;;5.33;5.33;;;;;10.02;80.31;103014.66;5024009;28;47360;-66
2022/01/29 09:46:30;;;;;;;;;3.00;3.00;;;;;9.97;80.35;103016.78;5018490;28;45386;-66
2022/01/29 09:48:56;;;;;;;;;4.00;2.33;;;;;9.99;79.98;103023.03;5025604;28;45269;-66
2022/01/29 09:51:21;;;;;;;;;3.00;3.00;;;;;9.90;79.90;103018.13;5019445;28;45457;-66
2022/01/29 09:53:47;;;;;;;;;4.00;3.33;;;;;9.74;80.72;103015.41;5025338;28;46597;-66
2022/01/29 09:56:14;;;;;;;;;5.00;3.33;;;;;9.76;80.87;103015.31;5034904;28;45350;-66
2022/01/29 09:58:40;;;;;;;;;4.00;2.67;;;;;9.71;80.93;103020.16;5024534;28;45502;-67
2022/01/29 10:01:05;;;;;;;;;4.00;4.00;;;;;9.85;81.29;103014.81;5021266;28;45509;-66
2022/01/29 10:03:31;;;;;;;;;4.67;4.67;;;;;10.03;81.20;103020.97;5019084;28;45674;-66
2022/01/29 10:06:00;;;;;;;;;5.00;4.00;;;;;9.97;80.93;103016.78;5020119;28;45469;-66
2022/01/29 10:08:27;;;;;;;;;4.33;4.33;;;;;9.95;80.46;103035.00;5019126;28;45418;-66
2022/01/29 10:10:55;;;;;;;;;4.33;4.33;;;;;9.87;81.35;103041.84;5019753;28;45612;-65
2022/01/29 10:13:32;;;;;;;;;5.33;4.00;;;;;9.96;81.23;103031.31;5019470;28;47949;-65
2022/01/29 10:16:21;;;;;;;;;5.33;5.00;;;;;9.97;81.03;103033.09;5020705;28;45600;-66
2022/01/29 10:19:03;;;;;;;;;3.00;3.00;;;;;10.03;81.74;103032.72;5023710;28;45426;-66
2022/01/29 10:21:32;;;;;;;;;3.00;3.00;;;;;10.15;81.05;103037.44;5020933;28;45487;-65
2022/01/29 10:24:06;;;;;;;;;2.33;2.33;;;;;10.23;80.53;103028.00;5021417;28;46758;-65
2022/01/29 10:26:36;;;;;;;;;7.33;5.00;;;;;10.29;80.13;103035.81;5034759;28;45243;-64
2022/01/29 10:29:07;;;;;;;;;2.00;2.00;;;;;10.33;79.89;103034.63;5024178;28;45439;-64
2022/01/29 10:31:45;;;;;;;;;6.33;5.00;;;;;10.33;79.87;103043.66;5021856;28;45694;-65
2022/01/29 10:34:20;;;;;;;;;6.00;4.33;;;;;10.16;80.37;103028.31;5022391;28;45442;-66
2022/01/29 10:37:14;;;;;;;;;5.00;3.00;;;;;10.28;80.63;103020.47;5020006;28;45411;-66
2022/01/29 10:39:41;;;;;;;;;3.00;3.00;;;;;10.33;80.16;103015.63;5022363;28;45453;-66
2022/01/29 10:42:18;;;;;;;;;1.33;0.67;;;;;10.46;79.33;103022.06;5021305;28;45468;-66
2022/01/29 10:44:46;;;;;;;;;3.00;3.00;;;;;10.51;79.19;103018.13;5019904;28;48085;-66
2022/01/29 10:47:12;;;;;;;;;4.33;3.00;;;;;10.37;79.58;103015.34;5020006;28;45458;-66
2022/01/29 10:49:44;;;;;;;;;4.67;4.00;;;;;10.39;79.56;103026.13;5024012;28;45331;-66
2022/01/29 10:52:12;;;;;;;;;4.00;3.33;;;;;10.44;79.40;103026.72;5021168;28;45355;-66
2022/01/29 10:54:42;;;;;;;;;4.33;4.33;;;;;10.42;79.72;103024.09;5022631;28;45669;-66
2022/01/29 10:57:10;;;;;;;;;3.00;3.00;;;;;10.51;79.96;103022.69;5020791;28;45398;-66
2022/01/29 10:59:56;;;;;;;;;6.33;3.00;;;;;10.49;79.40;103025.47;5021862;28;45339;-66
2022/01/29 11:02:26;;;;;;;;;3.00;3.00;;;;;10.61;79.38;103032.00;5014440;28;45363;-66
2022/01/29 11:04:51;;;;;;;;;3.00;3.00;;;;;10.70;79.37;103028.72;5017664;28;48552;-66
2022/01/29 11:07:18;;;;;;;;;2.00;2.00;;;;;10.81;78.78;103028.94;5019282;28;45526;-67
2022/01/29 11:09:46;;;;;;;;;3.00;3.00;;;;;10.48;79.73;103036.44;5021135;28;45313;-68
2022/01/29 11:12:17;;;;;;;;;4.33;4.33;;;;;10.40;80.14;103019.72;5020430;28;45814;-67
2022/01/29 11:14:44;;;;;;;;;3.33;3.33;;;;;10.52;80.14;103024.41;5019489;28;46414;-67
2022/01/29 11:17:10;;;;;;;;;2.00;2.00;;;;;10.50;79.38;103034.50;5021196;28;45639;-67
2022/01/29 11:19:39;;;;;;;;;3.33;3.00;;;;;10.39;80.10;103035.13;5023699;28;45449;-67
2022/01/29 11:22:06;;;;;;;;;4.00;2.00;;;;;10.38;80.75;103036.09;5019708;28;45486;-67
2022/01/29 11:24:33;;;;;;;;;3.00;3.00;;;;;10.52;80.76;103035.28;5022092;28;45494;-67
2022/01/29 11:26:59;;;;;;;;;7.33;3.33;;;;;10.57;80.32;103030.47;5035575;28;45533;-67